createdAt,value
2019-06-08T00:02:14.600Z,31.68
2019-06-08T00:04:48.659Z,31.00
2019-06-08T00:07:23.084Z,33.08
2019-06-08T00:09:56.992Z,32.73
2019-06-08T00:12:30.872Z,30.95
2019-06-08T00:15:06.579Z,32.45
2019-06-08T00:17:40.412Z,32.45
2019-06-08T00:20:15.425Z,31.68
2019-06-08T00:22:49.142Z,31.27
2019-06-08T00:25:24.119Z,31.70
2019-06-08T00:27:57.942Z,30.60
2019-06-08T00:30:32.891Z,32.13
2019-06-08T00:33:06.827Z,30.08
2019-06-08T00:35:40.553Z,34.35
2019-06-08T00:38:14.859Z,35.33
2019-06-08T00:40:48.654Z,35.60
2019-06-08T00:43:23.669Z,35.10
2019-06-08T00:45:57.705Z,34.45
2019-06-08T00:48:31.407Z,33.20
2019-06-08T00:51:05.254Z,34.30
2019-06-08T00:53:39.070Z,32.88
2019-06-08T00:56:12.912Z,33.50
2019-06-08T00:58:46.930Z,34.25
2019-06-08T01:01:22.768Z,32.30
2019-06-08T01:03:58.810Z,31.52
2019-06-08T01:06:33.648Z,33.78
2019-06-08T01:09:08.567Z,31.50
2019-06-08T01:11:42.499Z,32.67
2019-06-08T01:14:16.357Z,31.93
2019-06-08T01:16:50.182Z,33.10
2019-06-08T01:19:25.143Z,31.05
2019-06-08T01:21:59.845Z,30.15
2019-06-08T01:24:33.700Z,30.05
2019-06-08T01:27:07.573Z,30.95
2019-06-08T01:29:41.311Z,31.07
2019-06-08T01:32:15.022Z,31.95
2019-06-08T01:34:48.780Z,33.35
2019-06-08T01:37:23.014Z,32.53
2019-06-08T01:39:56.879Z,31.23
2019-06-08T01:42:31.853Z,31.95
2019-06-08T01:45:12.561Z,31.45
2019-06-08T01:47:46.441Z,32.00
2019-06-08T01:50:20.215Z,31.82
2019-06-08T01:52:54.049Z,33.85
2019-06-08T01:55:29.019Z,32.63
2019-06-08T01:58:04.112Z,33.40
2019-06-08T02:00:41.437Z,37.33
2019-06-08T02:03:13.269Z,36.80
2019-06-08T02:05:47.141Z,32.45
2019-06-08T02:08:20.899Z,32.93
2019-06-08T02:10:54.721Z,31.10
2019-06-08T02:13:28.892Z,31.17
2019-06-08T02:16:02.820Z,31.27
2019-06-08T02:18:48.976Z,33.78
2019-06-08T02:21:11.978Z,30.88
2019-06-08T02:23:46.421Z,30.45
2019-06-08T02:26:20.280Z,29.55
2019-06-08T02:28:54.049Z,28.30
2019-06-08T02:31:28.062Z,29.45
2019-06-08T02:34:02.365Z,29.67
2019-06-08T02:36:37.890Z,28.90
2019-06-08T02:39:11.822Z,28.00
2019-06-08T02:41:46.424Z,30.85
2019-06-08T02:44:20.248Z,28.98
2019-06-08T02:46:54.338Z,30.62
2019-06-08T02:49:29.101Z,30.95
2019-06-08T02:52:03.221Z,27.85
2019-06-08T02:54:39.826Z,28.90
2019-06-08T02:57:16.980Z,29.02
2019-06-08T02:59:55.449Z,29.50
2019-06-08T03:02:33.788Z,29.82
2019-06-08T03:05:10.021Z,31.82
2019-06-08T03:07:45.952Z,38.60
2019-06-08T03:10:20.133Z,37.63
2019-06-08T03:12:56.045Z,36.40
2019-06-08T03:15:34.016Z,36.63
2019-06-08T03:18:06.973Z,33.28
2019-06-08T03:20:42.417Z,31.12
2019-06-08T03:23:16.329Z,33.25
2019-06-08T03:25:53.140Z,32.83
2019-06-08T03:28:26.176Z,30.17
2019-06-08T03:31:00.196Z,29.57
2019-06-08T03:33:35.874Z,27.52
2019-06-08T03:36:09.402Z,28.02
2019-06-08T03:38:44.737Z,29.30
2019-06-08T03:41:18.681Z,29.92
2019-06-08T03:43:52.510Z,33.58
2019-06-08T03:46:26.340Z,36.08
2019-06-08T03:49:00.181Z,36.60
2019-06-08T03:51:37.332Z,32.38
2019-06-08T03:54:09.454Z,34.15
2019-06-08T03:56:44.185Z,35.35
2019-06-08T03:59:18.081Z,36.63
2019-06-08T04:01:51.857Z,36.23
2019-06-08T04:04:25.718Z,34.58
2019-06-08T04:06:59.558Z,31.10
2019-06-08T04:09:33.378Z,28.77
2019-06-08T04:12:07.295Z,29.27
2019-06-08T04:14:42.169Z,31.62
2019-06-08T04:17:16.506Z,30.55
2019-06-08T04:20:09.726Z,32.80
2019-06-08T04:22:26.326Z,31.48
2019-06-08T04:25:00.048Z,28.85
2019-06-08T04:27:34.401Z,29.20
2019-06-08T04:30:13.228Z,27.20
2019-06-08T04:32:49.277Z,26.30
2019-06-08T04:35:22.622Z,27.58
2019-06-08T04:37:56.560Z,32.38
2019-06-08T04:40:30.393Z,30.70
2019-06-08T04:43:05.461Z,29.87
2019-06-08T04:45:41.149Z,26.30
2019-06-08T04:48:15.233Z,28.73
2019-06-08T04:50:49.786Z,32.95
2019-06-08T04:53:23.682Z,32.40
2019-06-08T04:55:57.519Z,32.85
2019-06-08T04:58:32.114Z,29.85
2019-06-08T05:01:06.061Z,34.03
2019-06-08T05:03:41.374Z,34.03
2019-06-08T05:06:15.312Z,35.83
2019-06-08T05:08:49.826Z,35.20
2019-06-08T05:11:23.809Z,36.35
2019-06-08T05:13:57.664Z,32.13
2019-06-08T05:16:31.500Z,31.25
2019-06-08T05:19:05.453Z,27.02
2019-06-08T05:21:39.585Z,28.67
2019-06-08T05:24:13.423Z,27.45
2019-06-08T05:26:49.562Z,27.45
2019-06-08T05:29:23.509Z,26.80
2019-06-08T05:31:57.349Z,26.30
2019-06-08T05:34:31.093Z,26.12
2019-06-08T05:37:04.952Z,23.60
2019-06-08T05:39:39.535Z,25.08
2019-06-08T05:42:13.532Z,22.55
2019-06-08T05:44:47.857Z,23.27
2019-06-08T05:47:23.862Z,22.87
2019-06-08T05:49:58.185Z,23.30
2019-06-08T05:52:32.342Z,21.40
2019-06-08T05:55:12.451Z,21.65
2019-06-08T05:57:50.525Z,21.48
2019-06-08T06:00:25.632Z,22.55
2019-06-08T06:03:15.943Z,23.42
2019-06-08T06:05:42.467Z,21.35
2019-06-08T06:08:19.097Z,21.27
2019-06-08T06:10:51.787Z,24.25
2019-06-08T06:13:25.622Z,24.85
2019-06-08T06:16:19.967Z,22.77
2019-06-08T06:18:52.233Z,24.50
2019-06-08T06:21:26.021Z,24.45
2019-06-08T06:24:00.017Z,22.20
2019-06-08T06:26:33.693Z,22.13
2019-06-08T06:29:07.571Z,23.18
2019-06-08T06:31:41.657Z,23.35
2019-06-08T06:34:21.093Z,24.27
2019-06-08T06:36:57.476Z,19.32
2019-06-08T06:39:31.540Z,19.90
2019-06-08T06:42:06.526Z,17.85
2019-06-08T06:44:47.490Z,17.80
2019-06-08T06:47:23.554Z,19.35
2019-06-08T06:49:58.164Z,17.62
2019-06-08T06:52:31.923Z,17.98
2019-06-08T06:55:08.867Z,19.30
2019-06-08T06:57:43.522Z,18.02
2019-06-08T07:00:30.698Z,18.80
2019-06-08T07:03:04.761Z,18.17
2019-06-08T07:05:55.671Z,17.75
2019-06-08T07:08:29.402Z,19.00
2019-06-08T07:11:03.273Z,18.62
2019-06-08T07:13:37.954Z,17.42
2019-06-08T07:16:18.605Z,17.98
2019-06-08T07:18:48.196Z,15.90
2019-06-08T07:21:22.078Z,16.50
2019-06-08T07:23:56.308Z,17.40
2019-06-08T07:26:30.128Z,17.05
2019-06-08T07:29:04.095Z,16.42
2019-06-08T07:31:37.896Z,16.15
2019-06-08T07:34:11.731Z,16.77
2019-06-08T07:36:45.452Z,15.90
2019-06-08T07:39:19.330Z,17.98
2019-06-08T07:41:55.865Z,16.85
2019-06-08T07:44:29.742Z,17.65
2019-06-08T07:47:04.177Z,17.12
2019-06-08T07:49:38.024Z,16.30
2019-06-08T07:52:12.496Z,17.45
2019-06-08T07:54:46.383Z,16.48
2019-06-08T07:57:20.172Z,16.85
2019-06-08T07:59:54.694Z,16.75
2019-06-08T08:02:29.997Z,15.58
2019-06-08T08:05:08.377Z,13.93
2019-06-08T08:07:42.225Z,15.00
2019-06-08T08:10:17.010Z,16.50
2019-06-08T08:12:50.928Z,16.95
2019-06-08T08:15:24.787Z,16.25
2019-06-08T08:17:59.619Z,13.35
2019-06-08T08:20:35.597Z,15.68
2019-06-08T08:23:09.549Z,16.42
2019-06-08T08:25:43.383Z,14.45
2019-06-08T08:28:17.709Z,16.48
2019-06-08T08:30:53.765Z,14.33
2019-06-08T08:33:27.750Z,15.48
2019-06-08T08:36:02.053Z,14.05
2019-06-08T08:38:38.052Z,15.18
2019-06-08T08:41:11.368Z,14.43
2019-06-08T08:43:45.259Z,14.80
2019-06-08T08:46:19.160Z,13.05
2019-06-08T08:49:02.837Z,13.93
2019-06-08T08:51:30.824Z,14.50
2019-06-08T08:54:05.547Z,15.10
2019-06-08T08:56:52.192Z,15.08
2019-06-08T08:59:23.336Z,14.30
2019-06-08T09:01:59.833Z,14.28
2019-06-08T09:04:32.790Z,13.55
2019-06-08T09:07:10.154Z,15.30
2019-06-08T09:09:42.224Z,15.68
2019-06-08T09:12:18.332Z,14.30
2019-06-08T09:14:56.718Z,13.45
2019-06-08T09:17:30.874Z,16.23
2019-06-08T09:20:11.017Z,14.90
2019-06-08T09:22:52.375Z,13.38
2019-06-08T09:25:18.181Z,16.23
2019-06-08T09:27:54.140Z,14.78
2019-06-08T09:30:29.025Z,14.98
2019-06-08T09:33:04.185Z,14.95
2019-06-08T09:35:38.122Z,12.88
2019-06-08T09:38:11.937Z,11.88
2019-06-08T09:40:49.332Z,13.75
2019-06-08T09:43:23.143Z,14.10
2019-06-08T09:46:00.518Z,14.35
2019-06-08T09:48:38.186Z,12.93
2019-06-08T09:51:13.150Z,14.18
2019-06-08T09:53:47.645Z,28.30
2019-06-08T09:56:22.396Z,15.90
2019-06-08T09:59:01.310Z,12.05
2019-06-08T10:01:33.498Z,11.73
2019-06-08T10:04:09.185Z,15.35
2019-06-08T10:09:23.115Z,12.95
2019-06-08T10:11:59.595Z,13.55
2019-06-08T10:14:32.968Z,12.75
2019-06-08T10:17:10.903Z,88.40
2019-06-08T10:19:47.699Z,56.85
2019-06-08T10:22:21.614Z,45.00
2019-06-08T10:25:02.834Z,53.68
2019-06-08T10:27:35.625Z,16.10
2019-06-08T10:30:11.166Z,14.35
2019-06-08T10:32:44.996Z,16.02
2019-06-08T10:35:21.064Z,15.68
2019-06-08T10:38:00.386Z,14.70
2019-06-08T10:40:31.784Z,14.93
2019-06-08T10:43:07.327Z,15.65
2019-06-08T10:45:41.643Z,14.28
2019-06-08T10:48:17.771Z,20.65
2019-06-08T10:50:50.954Z,28.42
2019-06-08T10:53:24.841Z,29.42
2019-06-08T10:55:59.803Z,15.35
2019-06-08T10:58:33.996Z,33.67
2019-06-08T11:01:11.160Z,34.23
2019-06-08T11:03:43.812Z,14.25
2019-06-08T11:06:19.573Z,13.20
2019-06-08T11:08:53.511Z,16.12
2019-06-08T11:11:28.513Z,26.17
2019-06-08T11:14:03.819Z,12.30
2019-06-08T11:16:38.532Z,12.93
2019-06-08T11:19:17.813Z,10.80
2019-06-08T11:21:51.080Z,11.85
2019-06-08T11:24:25.455Z,13.18
2019-06-08T11:27:01.287Z,16.45
2019-06-08T11:29:38.144Z,10.70
2019-06-08T11:32:12.475Z,11.00
2019-06-08T11:34:48.658Z,51.35
2019-06-08T11:37:21.713Z,45.38
2019-06-08T11:39:57.626Z,13.50
2019-06-08T11:42:31.108Z,12.07
2019-06-08T11:45:11.047Z,13.43
2019-06-08T11:47:45.462Z,13.68
2019-06-08T11:50:41.574Z,13.03
2019-06-08T11:53:14.586Z,13.22
2019-06-08T11:55:51.087Z,21.50
2019-06-08T11:58:28.274Z,17.35
2019-06-08T12:01:07.020Z,13.80
2019-06-08T12:03:40.459Z,13.68
2019-06-08T12:06:14.590Z,13.03
2019-06-08T12:08:48.584Z,21.30
2019-06-08T12:11:23.207Z,13.58
2019-06-08T12:14:00.924Z,13.93
2019-06-08T12:16:37.750Z,13.40
2019-06-08T12:19:15.130Z,15.85
2019-06-08T12:21:49.639Z,12.47
2019-06-08T12:24:22.929Z,13.15
2019-06-08T12:27:07.534Z,11.93
2019-06-08T12:29:32.254Z,10.20
2019-06-08T12:32:08.840Z,13.20
2019-06-08T12:34:42.003Z,10.45
2019-06-08T12:37:21.330Z,10.78
2019-06-08T12:39:54.402Z,10.95
2019-06-08T12:42:28.417Z,12.05
2019-06-08T12:45:02.367Z,11.25
2019-06-08T12:47:38.117Z,11.28
2019-06-08T12:50:14.742Z,10.50
2019-06-08T12:52:48.559Z,9.98
2019-06-08T12:55:25.279Z,9.83
2019-06-08T12:57:58.228Z,10.23
2019-06-08T13:00:32.038Z,9.65
2019-06-08T13:03:08.194Z,9.48
2019-06-08T13:05:41.144Z,10.70
2019-06-08T13:08:15.274Z,9.40
2019-06-08T13:10:49.063Z,9.35
2019-06-08T13:13:28.059Z,9.40
2019-06-08T13:16:02.609Z,9.40
2019-06-08T13:18:40.307Z,8.68
2019-06-08T13:21:22.216Z,8.65
2019-06-08T13:23:48.140Z,8.38
2019-06-08T13:26:27.821Z,8.48
2019-06-08T13:28:58.311Z,9.25
2019-06-08T13:31:33.541Z,8.73
2019-06-08T13:34:11.059Z,8.63
2019-06-08T13:36:44.198Z,8.60
2019-06-08T13:39:20.118Z,9.43
2019-06-08T13:41:54.834Z,8.58
2019-06-08T13:44:28.639Z,8.80
2019-06-08T13:47:03.465Z,8.73
2019-06-08T13:49:38.124Z,9.05
2019-06-08T13:52:11.973Z,9.50
2019-06-08T13:54:47.984Z,9.38
2019-06-08T13:57:24.654Z,15.03
2019-06-08T13:59:57.832Z,13.93
2019-06-08T14:02:31.863Z,8.73
2019-06-08T14:05:10.081Z,9.25
2019-06-08T14:07:44.083Z,10.82
2019-06-08T14:10:25.768Z,10.08
2019-06-08T14:13:00.758Z,9.98
2019-06-08T14:15:34.548Z,10.03
2019-06-08T14:18:08.958Z,9.70
2019-06-08T14:20:44.571Z,10.03
2019-06-08T14:23:21.252Z,9.85
2019-06-08T14:25:56.872Z,9.63
2019-06-08T14:28:30.385Z,10.50
2019-06-08T14:31:04.398Z,10.60
2019-06-08T14:33:39.347Z,11.80
2019-06-08T14:36:13.065Z,12.80
2019-06-08T14:38:49.618Z,12.28
2019-06-08T14:41:33.150Z,12.18
2019-06-08T14:44:08.278Z,12.63
2019-06-08T14:46:42.193Z,12.37
2019-06-08T14:49:18.296Z,13.03
2019-06-08T14:51:52.395Z,12.10
2019-06-08T14:54:29.058Z,11.40
2019-06-08T14:57:01.632Z,11.97
2019-06-08T14:59:35.446Z,12.00
2019-06-08T15:02:09.663Z,12.50
2019-06-08T15:04:43.471Z,12.30
2019-06-08T15:07:20.107Z,13.35
2019-06-08T15:09:52.626Z,13.05
2019-06-08T15:12:28.581Z,13.03
2019-06-08T15:15:02.862Z,15.38
2019-06-08T15:17:37.939Z,16.52
2019-06-08T15:20:12.068Z,18.00
2019-06-08T15:25:27.400Z,18.92
2019-06-08T15:28:02.095Z,17.60
2019-06-08T15:30:38.090Z,19.50
2019-06-08T15:33:11.373Z,18.92
2019-06-08T15:35:47.543Z,18.75
2019-06-08T15:38:22.422Z,19.00
2019-06-08T15:40:57.670Z,18.95
2019-06-08T15:43:36.307Z,17.92
2019-06-08T15:46:08.467Z,17.95
2019-06-08T15:48:43.363Z,17.50
2019-06-08T15:51:17.275Z,16.82
2019-06-08T15:53:50.978Z,17.98
2019-06-08T15:56:40.813Z,17.60
2019-06-08T15:59:00.472Z,19.20
2019-06-08T16:01:34.694Z,19.42
2019-06-08T16:04:08.765Z,20.17
2019-06-08T16:06:43.473Z,20.20
2019-06-08T16:09:17.430Z,21.70
2019-06-08T16:11:51.389Z,20.48
2019-06-08T16:14:25.079Z,21.33
2019-06-08T16:16:58.954Z,21.00
2019-06-08T16:19:33.731Z,21.97
2019-06-08T16:22:07.734Z,19.70
2019-06-08T16:24:41.483Z,20.20
2019-06-08T16:27:15.321Z,20.55
2019-06-08T16:29:50.141Z,20.05
2019-06-08T16:32:23.827Z,18.37
2019-06-08T16:34:58.056Z,17.85
2019-06-08T16:37:32.035Z,16.40
2019-06-08T16:40:07.999Z,16.50
2019-06-08T16:42:41.855Z,16.42
2019-06-08T16:45:19.163Z,17.70
2019-06-08T16:47:53.047Z,16.05
2019-06-08T16:50:28.000Z,23.20
2019-06-08T16:53:01.873Z,16.00
2019-06-08T16:55:36.147Z,14.73
2019-06-08T16:58:10.119Z,13.83
2019-06-08T17:00:44.053Z,13.25
2019-06-08T17:03:17.880Z,12.25
2019-06-08T17:05:51.638Z,14.63
2019-06-08T17:08:25.584Z,11.45
2019-06-08T17:10:59.642Z,12.88
2019-06-08T17:13:34.062Z,12.88
2019-06-08T17:16:08.093Z,10.48
2019-06-08T17:18:41.966Z,8.48
2019-06-08T17:21:15.811Z,8.40
2019-06-08T17:23:49.674Z,7.30
2019-06-08T17:26:23.498Z,8.63
2019-06-08T17:28:57.433Z,8.30
2019-06-08T17:31:31.390Z,7.60
2019-06-08T17:34:05.058Z,7.87
2019-06-08T17:36:40.619Z,7.70
2019-06-08T17:39:14.573Z,7.50
2019-06-08T17:41:48.345Z,7.10
2019-06-08T17:44:22.035Z,6.85
2019-06-08T17:46:55.839Z,6.95
2019-06-08T17:49:29.723Z,6.75
2019-06-08T17:52:03.692Z,6.25
2019-06-08T17:54:37.530Z,7.45
2019-06-08T17:57:11.299Z,6.35
2019-06-08T17:59:45.478Z,6.70
2019-06-08T18:02:27.397Z,6.72
2019-06-08T18:04:54.774Z,7.60
2019-06-08T18:07:28.573Z,6.72
2019-06-08T18:10:03.054Z,7.25
2019-06-08T18:12:41.067Z,7.53
2019-06-08T18:15:17.442Z,6.90
2019-06-08T18:17:50.893Z,7.62
2019-06-08T18:20:24.770Z,7.65
2019-06-08T18:22:58.518Z,7.17
2019-06-08T18:25:32.214Z,7.65
2019-06-08T18:28:11.029Z,7.97
2019-06-08T18:30:43.438Z,7.65
2019-06-08T18:33:18.441Z,14.10
2019-06-08T18:35:52.325Z,18.82
2019-06-08T18:38:27.375Z,18.87
2019-06-08T18:41:01.155Z,8.90
2019-06-08T18:43:41.550Z,10.43
2019-06-08T18:46:18.138Z,9.40
2019-06-08T18:48:53.240Z,7.60
2019-06-08T18:51:28.078Z,7.78
2019-06-08T18:54:11.757Z,10.60
2019-06-08T18:56:41.657Z,7.92
2019-06-08T18:59:14.504Z,9.25
2019-06-08T19:01:50.984Z,11.85
2019-06-08T19:04:27.627Z,10.03
2019-06-08T19:07:03.170Z,9.23
2019-06-08T19:09:40.872Z,7.30
2019-06-08T19:12:19.555Z,7.97
2019-06-08T19:14:53.576Z,6.72
2019-06-08T19:17:28.459Z,9.13
2019-06-08T19:20:03.333Z,7.15
2019-06-08T19:22:41.666Z,7.30
2019-06-08T19:25:13.383Z,7.10
2019-06-08T19:27:52.954Z,8.25
2019-06-08T19:30:24.877Z,7.40
2019-06-08T19:32:58.620Z,9.13
2019-06-08T19:35:34.728Z,9.03
2019-06-08T19:38:08.775Z,7.70
2019-06-08T19:40:42.728Z,8.03
2019-06-08T19:43:18.290Z,8.58
2019-06-08T19:45:52.345Z,8.88
2019-06-08T19:48:31.102Z,8.45
2019-06-08T19:51:03.047Z,8.33
2019-06-08T19:53:38.429Z,8.13
2019-06-08T19:56:12.210Z,7.95
2019-06-08T19:58:58.092Z,7.37
2019-06-08T20:01:21.161Z,7.05
2019-06-08T20:03:54.909Z,6.60
2019-06-08T20:06:28.785Z,5.28
2019-06-08T20:09:02.661Z,5.28
2019-06-08T20:11:43.255Z,5.55
2019-06-08T20:14:14.802Z,5.72
2019-06-08T20:16:50.775Z,5.03
2019-06-08T20:19:24.366Z,4.40
2019-06-08T20:21:58.450Z,4.75
2019-06-08T20:24:33.029Z,4.75
2019-06-08T20:27:10.281Z,4.20
2019-06-08T20:29:43.959Z,4.80
2019-06-08T20:32:18.132Z,5.12
2019-06-08T20:34:53.860Z,5.17
2019-06-08T20:37:29.116Z,5.08
2019-06-08T20:40:11.147Z,4.03
2019-06-08T20:42:39.123Z,3.90
2019-06-08T20:45:13.108Z,3.92
2019-06-08T20:47:49.451Z,4.28
2019-06-08T20:50:22.365Z,4.30
2019-06-08T20:52:57.698Z,4.40
2019-06-08T20:55:31.520Z,4.10
2019-06-08T20:58:05.360Z,3.62
2019-06-08T21:00:39.153Z,3.65
2019-06-08T21:03:13.776Z,3.47
2019-06-08T21:05:48.521Z,3.75
2019-06-08T21:08:28.047Z,3.65
2019-06-08T21:11:01.225Z,3.33
2019-06-08T21:13:37.354Z,3.67
2019-06-08T21:16:10.319Z,3.37
2019-06-08T21:18:44.684Z,3.70
2019-06-08T21:21:18.575Z,3.58
2019-06-08T21:23:55.543Z,3.67
2019-06-08T21:26:27.886Z,3.62
2019-06-08T21:29:01.727Z,3.12
2019-06-08T21:31:37.706Z,3.12
2019-06-08T21:34:11.625Z,3.20
2019-06-08T21:36:46.480Z,3.65
2019-06-08T21:39:21.883Z,3.10
2019-06-08T21:42:01.004Z,3.20
2019-06-08T21:44:31.158Z,3.80
2019-06-08T21:47:07.696Z,3.75
2019-06-08T21:49:40.714Z,3.75
2019-06-08T21:52:14.403Z,3.58
2019-06-08T21:54:49.359Z,3.85
2019-06-08T21:57:23.562Z,3.92
2019-06-08T22:00:13.892Z,3.98
2019-06-08T22:02:32.852Z,3.52
2019-06-08T22:05:10.486Z,4.12
2019-06-08T22:07:47.165Z,3.80
2019-06-08T22:10:21.071Z,3.72
2019-06-08T22:12:57.293Z,3.87
2019-06-08T22:15:33.217Z,3.77
2019-06-08T22:18:08.006Z,4.00
2019-06-08T22:20:47.841Z,3.95
2019-06-08T22:23:21.241Z,3.70
2019-06-08T22:25:56.035Z,3.77
2019-06-08T22:28:30.573Z,3.77
2019-06-08T22:31:04.392Z,3.60
2019-06-08T22:33:38.194Z,3.47
2019-06-08T22:36:14.844Z,4.08
2019-06-08T22:38:48.625Z,3.85
2019-06-08T22:41:22.433Z,3.77
2019-06-08T22:43:59.058Z,3.67
2019-06-08T22:46:33.243Z,3.42
2019-06-08T22:49:08.075Z,3.80
2019-06-08T22:51:42.180Z,3.70
2019-06-08T22:54:17.037Z,3.92
2019-06-08T22:56:50.989Z,4.50
2019-06-08T22:59:24.790Z,4.30
2019-06-08T23:02:02.405Z,4.00
2019-06-08T23:04:33.921Z,4.03
2019-06-08T23:07:17.737Z,4.40
2019-06-08T23:09:44.924Z,4.08
2019-06-08T23:12:18.706Z,4.03
2019-06-08T23:14:52.432Z,4.53
2019-06-08T23:17:28.052Z,4.05
2019-06-08T23:20:08.363Z,4.40
2019-06-08T23:22:58.322Z,4.33
2019-06-08T23:25:22.334Z,4.37
2019-06-08T23:27:56.298Z,4.33
2019-06-08T23:30:31.893Z,3.70
2019-06-08T23:33:10.412Z,4.22
2019-06-08T23:36:20.738Z,4.28
2019-06-08T23:38:27.906Z,4.00
2019-06-08T23:41:02.258Z,4.28
2019-06-08T23:43:38.460Z,4.50
2019-06-08T23:46:12.365Z,4.08
2019-06-08T23:48:49.260Z,3.47
2019-06-08T23:51:22.990Z,4.53
2019-06-08T23:53:59.699Z,4.00
2019-06-08T23:56:32.142Z,4.10
2019-06-08T23:59:07.207Z,3.85
